createdAt,value
2018-08-28T00:00:30.136Z,1.97
2018-08-28T00:02:58.685Z,1.87
2018-08-28T00:05:27.506Z,1.70
2018-08-28T00:07:56.054Z,1.87
2018-08-28T00:10:24.608Z,2.03
2018-08-28T00:12:53.123Z,2.00
2018-08-28T00:15:21.716Z,1.77
2018-08-28T00:17:50.296Z,1.90
2018-08-28T00:20:19.320Z,2.00
2018-08-28T00:22:48.330Z,1.70
2018-08-28T00:25:17.113Z,1.93
2018-08-28T00:27:46.047Z,2.10
2018-08-28T00:30:14.460Z,2.13
2018-08-28T00:32:43.016Z,2.10
2018-08-28T00:35:11.568Z,2.23
2018-08-28T00:37:40.214Z,2.00
2018-08-28T00:40:08.686Z,2.10
2018-08-28T00:42:37.179Z,2.20
2018-08-28T00:45:06.118Z,1.67
2018-08-28T00:47:34.716Z,1.73
2018-08-28T00:50:03.245Z,1.90
2018-08-28T00:52:31.751Z,2.13
2018-08-28T00:55:00.375Z,1.87
2018-08-28T00:57:28.938Z,1.67
2018-08-28T00:59:57.369Z,1.90
2018-08-28T01:02:25.836Z,1.63
2018-08-28T01:04:54.225Z,1.90
2018-08-28T01:07:22.811Z,2.10
2018-08-28T01:09:51.239Z,1.90
2018-08-28T01:12:20.723Z,1.90
2018-08-28T01:14:49.248Z,2.07
2018-08-28T01:17:18.463Z,2.00
2018-08-28T01:19:47.453Z,2.10
2018-08-28T01:22:15.994Z,2.20
2018-08-28T01:24:44.546Z,2.10
2018-08-28T01:27:12.986Z,1.90
2018-08-28T01:29:41.540Z,2.17
2018-08-28T01:32:10.027Z,1.90
2018-08-28T01:34:38.542Z,1.80
2018-08-28T01:37:06.989Z,2.30
2018-08-28T01:39:35.688Z,1.90
2018-08-28T01:42:04.560Z,2.10
2018-08-28T01:44:33.112Z,2.00
2018-08-28T01:47:01.647Z,1.97
2018-08-28T01:49:30.417Z,2.10
2018-08-28T01:51:58.904Z,2.30
2018-08-28T01:54:27.470Z,2.07
2018-08-28T01:56:55.927Z,2.30
2018-08-28T01:59:24.508Z,2.50
2018-08-28T02:01:52.967Z,2.27
2018-08-28T02:04:21.510Z,3.10
2018-08-28T02:06:49.942Z,3.27
2018-08-28T02:09:18.515Z,3.03
2018-08-28T02:11:47.749Z,3.47
2018-08-28T02:14:16.333Z,3.00
2018-08-28T02:16:44.805Z,3.50
2018-08-28T02:19:13.284Z,2.93
2018-08-28T02:21:42.074Z,3.10
2018-08-28T02:24:10.588Z,2.97
2018-08-28T02:26:39.105Z,2.80
2018-08-28T02:29:07.651Z,2.80
2018-08-28T02:31:36.066Z,2.80
2018-08-28T02:34:04.723Z,2.37
2018-08-28T02:36:33.521Z,2.77
2018-08-28T02:39:02.007Z,2.70
2018-08-28T02:41:30.449Z,2.40
2018-08-28T02:43:58.925Z,2.67
2018-08-28T02:46:27.392Z,2.67
2018-08-28T02:48:55.949Z,2.70
2018-08-28T02:51:24.370Z,2.80
2018-08-28T02:53:52.910Z,2.80
2018-08-28T02:56:21.526Z,3.07
2018-08-28T02:58:50.158Z,3.10
2018-08-28T03:01:19.095Z,2.80
2018-08-28T03:03:48.059Z,3.13
2018-08-28T03:06:17.114Z,3.17
2018-08-28T03:08:46.029Z,3.33
2018-08-28T03:11:14.505Z,3.67
2018-08-28T03:13:43.160Z,3.30
2018-08-28T03:16:11.600Z,3.80
2018-08-28T03:18:40.282Z,3.40
2018-08-28T03:21:09.185Z,3.37
2018-08-28T03:23:38.011Z,3.73
2018-08-28T03:26:06.478Z,4.30
2018-08-28T03:28:34.922Z,3.60
2018-08-28T03:31:03.418Z,3.57
2018-08-28T03:33:31.861Z,4.17
2018-08-28T03:36:00.306Z,3.70
2018-08-28T03:38:28.762Z,4.13
2018-08-28T03:40:57.179Z,3.80
2018-08-28T03:43:25.790Z,4.13
2018-08-28T03:45:54.256Z,3.93
2018-08-28T03:48:22.753Z,3.70
2018-08-28T03:50:51.254Z,4.00
2018-08-28T03:53:20.482Z,3.93
2018-08-28T03:55:48.983Z,4.20
2018-08-28T03:58:18.484Z,3.60
2018-08-28T04:00:46.936Z,4.23
2018-08-28T04:03:15.457Z,4.07
2018-08-28T04:05:43.944Z,4.33
2018-08-28T04:08:12.519Z,4.30
2018-08-28T04:10:40.929Z,4.20
2018-08-28T04:13:09.451Z,3.87
2018-08-28T04:15:37.929Z,4.60
2018-08-28T04:18:06.402Z,3.97
2018-08-28T04:20:34.848Z,4.60
2018-08-28T04:23:03.400Z,4.80
2018-08-28T04:25:31.860Z,4.37
2018-08-28T04:28:00.443Z,4.40
2018-08-28T04:30:28.903Z,4.93
2018-08-28T04:32:57.559Z,5.07
2018-08-28T04:35:26.000Z,5.83
2018-08-28T04:37:54.500Z,5.60
2018-08-28T04:40:22.913Z,4.80
2018-08-28T04:42:51.375Z,5.17
2018-08-28T04:45:19.804Z,5.37
2018-08-28T04:47:48.726Z,6.10
2018-08-28T04:50:17.718Z,5.70
2018-08-28T04:52:46.811Z,5.63
2018-08-28T04:55:15.245Z,5.60
2018-08-28T04:57:43.907Z,5.70
2018-08-28T05:00:12.686Z,5.60
2018-08-28T05:02:41.194Z,5.40
2018-08-28T05:05:10.134Z,6.00
2018-08-28T05:07:38.596Z,6.30
2018-08-28T05:10:07.377Z,5.80
2018-08-28T05:12:35.824Z,5.87
2018-08-28T05:15:04.340Z,5.50
2018-08-28T05:17:32.829Z,6.00
2018-08-28T05:20:01.431Z,6.37
2018-08-28T05:22:29.865Z,5.33
2018-08-28T05:24:58.381Z,5.40
2018-08-28T05:27:26.828Z,5.43
2018-08-28T05:29:55.329Z,5.57
2018-08-28T05:32:24.132Z,5.93
2018-08-28T05:34:52.695Z,5.80
2018-08-28T05:37:21.144Z,5.43
2018-08-28T05:39:49.657Z,6.23
2018-08-28T05:42:18.691Z,6.10
2018-08-28T05:44:47.568Z,5.60
2018-08-28T05:47:16.142Z,6.53
2018-08-28T05:49:44.569Z,6.07
2018-08-28T05:52:13.003Z,6.60
2018-08-28T05:54:41.436Z,7.57
2018-08-28T05:58:12.953Z,6.67
2018-08-28T06:00:41.425Z,6.40
2018-08-28T06:03:10.127Z,6.90
2018-08-28T06:05:38.778Z,7.80
2018-08-28T06:08:07.397Z,6.90
2018-08-28T06:10:35.936Z,6.80
2018-08-28T06:13:04.795Z,7.00
2018-08-28T06:15:33.373Z,7.20
2018-08-28T06:18:01.842Z,6.67
2018-08-28T06:20:30.448Z,7.30
2018-08-28T06:22:59.106Z,7.10
2018-08-28T06:25:27.669Z,7.83
2018-08-28T06:27:56.160Z,7.70
2018-08-28T06:30:24.797Z,7.13
2018-08-28T06:32:53.234Z,7.33
2018-08-28T06:35:21.849Z,7.50
2018-08-28T06:37:50.274Z,7.00
2018-08-28T06:40:19.169Z,7.33
2018-08-28T06:42:48.561Z,7.17
2018-08-28T06:45:17.086Z,7.00
2018-08-28T06:47:45.532Z,7.47
2018-08-28T06:50:14.141Z,7.00
2018-08-28T06:52:42.626Z,7.50
2018-08-28T06:55:11.073Z,8.13
2018-08-28T06:57:39.569Z,7.67
2018-08-28T07:00:08.554Z,7.23
2018-08-28T07:02:37.315Z,7.13
2018-08-28T07:05:05.936Z,7.50
2018-08-28T07:07:34.397Z,7.43
2018-08-28T07:10:02.999Z,7.23
2018-08-28T07:12:31.673Z,7.00
2018-08-28T07:15:00.260Z,7.67
2018-08-28T07:17:28.726Z,7.13
2018-08-28T07:19:57.648Z,7.13
2018-08-28T07:22:27.284Z,7.10
2018-08-28T07:24:56.090Z,7.17
2018-08-28T07:27:24.560Z,6.83
2018-08-28T07:29:53.005Z,6.53
2018-08-28T07:32:21.484Z,7.07
2018-08-28T07:34:50.091Z,7.13
2018-08-28T07:37:19.317Z,6.40
2018-08-28T07:39:48.558Z,6.57
2018-08-28T07:42:17.113Z,6.47
2018-08-28T07:44:45.657Z,6.67
2018-08-28T07:47:14.127Z,6.47
2018-08-28T07:49:42.986Z,5.97
2018-08-28T07:52:11.465Z,6.03
2018-08-28T07:54:39.966Z,6.17
2018-08-28T07:57:08.393Z,6.20
2018-08-28T07:59:36.942Z,6.10
2018-08-28T08:02:05.422Z,5.43
2018-08-28T08:04:34.286Z,6.00
2018-08-28T08:07:02.749Z,6.37
2018-08-28T08:09:31.316Z,6.20
2018-08-28T08:11:59.945Z,6.20
2018-08-28T08:14:28.448Z,5.97
2018-08-28T08:16:57.007Z,6.23
2018-08-28T08:19:25.524Z,16.00
2018-08-28T08:21:54.069Z,21.70
2018-08-28T08:24:22.505Z,7.63
2018-08-28T08:26:51.017Z,6.40
2018-08-28T08:29:19.547Z,24.27
2018-08-28T08:31:48.288Z,11.90
2018-08-28T08:34:17.405Z,10.67
2018-08-28T08:36:45.804Z,8.10
2018-08-28T08:39:14.403Z,6.67
2018-08-28T08:41:42.917Z,6.53
2018-08-28T08:44:11.450Z,6.87
2018-08-28T08:46:39.892Z,6.17
2018-08-28T08:49:08.379Z,7.07
2018-08-28T08:51:36.800Z,6.67
2018-08-28T08:54:05.326Z,6.33
2018-08-28T08:56:33.760Z,5.70
2018-08-28T08:59:02.279Z,6.03
2018-08-28T09:01:30.918Z,6.47
2018-08-28T09:03:59.449Z,6.50
2018-08-28T09:06:27.873Z,5.80
2018-08-28T09:08:56.365Z,6.10
2018-08-28T09:11:24.871Z,6.47
2018-08-28T09:13:53.435Z,6.20
2018-08-28T09:16:21.830Z,6.77
2018-08-28T09:18:50.380Z,7.17
2018-08-28T09:21:18.852Z,6.50
2018-08-28T09:23:48.117Z,5.97
2018-08-28T09:26:17.107Z,6.23
2018-08-28T09:28:45.550Z,6.37
2018-08-28T09:31:14.042Z,7.10
2018-08-28T09:33:42.756Z,6.30
2018-08-28T09:36:11.263Z,6.80
2018-08-28T09:38:39.797Z,6.33
2018-08-28T09:41:08.427Z,6.53
2018-08-28T09:43:36.887Z,6.67
2018-08-28T09:46:05.365Z,6.80
2018-08-28T09:48:33.882Z,6.50
2018-08-28T09:51:02.449Z,6.20
2018-08-28T09:53:31.054Z,6.80
2018-08-28T09:55:59.490Z,7.60
2018-08-28T09:58:27.935Z,6.80
2018-08-28T10:01:01.687Z,6.33
2018-08-28T10:03:30.233Z,6.50
2018-08-28T10:05:58.721Z,6.60
2018-08-28T10:08:27.196Z,7.20
2018-08-28T10:10:55.665Z,6.33
2018-08-28T10:13:24.275Z,7.03
2018-08-28T10:15:52.708Z,6.93
2018-08-28T10:18:21.162Z,7.07
2018-08-28T10:20:49.649Z,6.90
2018-08-28T10:23:18.828Z,7.03
2018-08-28T10:25:48.365Z,6.70
2018-08-28T10:28:17.608Z,7.20
2018-08-28T10:30:46.365Z,6.83
2018-08-28T10:33:14.780Z,7.67
2018-08-28T10:35:43.283Z,7.63
2018-08-28T10:38:11.682Z,7.17
2018-08-28T10:40:40.433Z,7.17
2018-08-28T10:43:08.796Z,8.47
2018-08-28T10:45:37.354Z,9.60
2018-08-28T10:48:05.913Z,7.00
2018-08-28T10:50:34.343Z,7.63
2018-08-28T10:53:02.973Z,7.20
2018-08-28T10:55:31.582Z,7.73
2018-08-28T10:58:00.040Z,6.83
2018-08-28T11:00:28.561Z,7.50
2018-08-28T11:02:56.983Z,13.83
2018-08-28T11:05:25.513Z,8.23
2018-08-28T11:07:53.990Z,10.63
2018-08-28T11:10:22.493Z,8.13
2018-08-28T11:12:50.913Z,10.83
2018-08-28T11:15:19.402Z,8.37
2018-08-28T11:17:48.571Z,8.03
2018-08-28T11:20:17.266Z,7.70
2018-08-28T11:22:45.781Z,7.57
2018-08-28T11:25:14.482Z,7.90
2018-08-28T11:27:42.918Z,7.60
2018-08-28T11:30:11.431Z,7.47
2018-08-28T11:32:40.112Z,7.17
2018-08-28T11:35:08.593Z,7.57
2018-08-28T11:37:37.162Z,11.17
2018-08-28T11:40:05.753Z,8.70
2018-08-28T11:42:34.221Z,7.53
2018-08-28T11:45:02.737Z,7.23
2018-08-28T11:47:31.474Z,7.43
2018-08-28T11:49:59.998Z,12.83
2018-08-28T11:52:28.492Z,8.60
2018-08-28T11:54:57.107Z,7.73
2018-08-28T11:57:25.542Z,7.33
2018-08-28T11:59:54.058Z,7.97
2018-08-28T12:02:22.547Z,7.67
2018-08-28T12:04:51.192Z,7.80
2018-08-28T12:07:19.838Z,7.90
2018-08-28T12:09:49.228Z,7.27
2018-08-28T12:12:18.581Z,7.33
2018-08-28T12:14:47.291Z,8.27
2018-08-28T12:17:15.790Z,8.77
2018-08-28T12:19:44.212Z,18.90
2018-08-28T12:22:12.800Z,8.07
2018-08-28T12:24:42.278Z,7.57
2018-08-28T12:27:10.799Z,7.47
2018-08-28T12:29:39.438Z,7.73
2018-08-28T12:32:08.046Z,7.27
2018-08-28T12:34:36.579Z,7.67
2018-08-28T12:37:05.130Z,7.37
2018-08-28T12:39:33.924Z,7.23
2018-08-28T12:42:02.447Z,7.00
2018-08-28T12:44:30.896Z,7.33
2018-08-28T12:46:59.463Z,7.47
2018-08-28T12:49:28.111Z,7.43
2018-08-28T12:51:56.534Z,7.67
2018-08-28T12:54:25.070Z,7.87
2018-08-28T12:56:53.538Z,8.33
2018-08-28T12:59:22.303Z,7.83
2018-08-28T13:01:51.047Z,8.17
2018-08-28T13:04:19.543Z,8.20
2018-08-28T13:06:48.866Z,7.70
2018-08-28T13:09:17.739Z,8.00
2018-08-28T13:11:46.490Z,7.63
2018-08-28T13:14:15.081Z,8.83
2018-08-28T13:16:43.627Z,8.60
2018-08-28T13:19:12.062Z,8.50
2018-08-28T13:21:40.526Z,8.60
2018-08-28T13:24:09.055Z,8.50
2018-08-28T13:26:37.675Z,8.67
2018-08-28T13:29:06.648Z,8.37
2018-08-28T13:31:35.073Z,7.63
2018-08-28T13:34:03.651Z,8.27
2018-08-28T13:36:32.292Z,8.30
2018-08-28T13:39:00.927Z,8.93
2018-08-28T13:41:29.371Z,7.13
2018-08-28T13:43:57.946Z,9.80
2018-08-28T13:46:26.399Z,8.17
2018-08-28T13:48:55.040Z,7.80
2018-08-28T13:51:23.578Z,8.37
2018-08-28T13:53:52.233Z,8.17
2018-08-28T13:56:20.841Z,7.80
2018-08-28T13:58:49.403Z,8.20
2018-08-28T14:01:18.602Z,7.40
2018-08-28T14:03:47.688Z,7.87
2018-08-28T14:06:16.091Z,7.27
2018-08-28T14:08:44.625Z,7.00
2018-08-28T14:11:13.065Z,9.20
2018-08-28T14:13:41.637Z,7.70
2018-08-28T14:16:10.361Z,7.27
2018-08-28T14:18:38.939Z,7.60
2018-08-28T14:21:07.675Z,8.00
2018-08-28T14:23:36.257Z,8.00
2018-08-28T14:26:04.781Z,7.10
2018-08-28T14:28:33.315Z,7.83
2018-08-28T14:31:01.966Z,7.23
2018-08-28T14:33:30.733Z,8.20
2018-08-28T14:35:59.229Z,7.77
2018-08-28T14:38:27.767Z,8.40
2018-08-28T14:40:56.394Z,7.00
2018-08-28T14:43:25.059Z,7.67
2018-08-28T14:45:53.501Z,7.57
2018-08-28T14:48:22.139Z,7.10
2018-08-28T14:50:50.667Z,7.03
2018-08-28T14:53:19.477Z,7.17
2018-08-28T14:55:48.672Z,6.87
2018-08-28T14:58:17.532Z,7.13
2018-08-28T15:00:45.970Z,7.87
2018-08-28T15:03:14.487Z,7.67
2018-08-28T15:05:42.902Z,7.37
2018-08-28T15:08:11.432Z,33.40
2018-08-28T15:10:39.877Z,10.63
2018-08-28T15:13:08.396Z,8.10
2018-08-28T15:15:36.874Z,8.77
2018-08-28T15:18:05.397Z,7.87
2018-08-28T15:20:33.847Z,7.50
2018-08-28T15:23:02.293Z,7.03
2018-08-28T15:25:30.799Z,7.47
2018-08-28T15:27:59.284Z,7.40
2018-08-28T15:30:27.748Z,7.10
2018-08-28T15:32:57.356Z,7.13
2018-08-28T15:35:25.813Z,7.10
2018-08-28T15:37:54.316Z,10.15
2018-08-28T15:40:22.800Z,8.57
2018-08-28T15:42:51.278Z,7.17
2018-08-28T15:45:19.923Z,7.73
2018-08-28T15:47:48.476Z,7.50
2018-08-28T15:50:17.000Z,7.20
2018-08-28T15:52:45.559Z,7.27
2018-08-28T15:55:14.056Z,7.10
2018-08-28T15:57:42.566Z,7.73
2018-08-28T16:00:11.043Z,7.33
2018-08-28T16:02:39.570Z,7.43
2018-08-28T16:05:08.009Z,7.10
2018-08-28T16:07:36.525Z,7.20
2018-08-28T16:10:05.000Z,6.80
2018-08-28T16:12:34.482Z,7.43
2018-08-28T16:15:03.046Z,7.63
2018-08-28T16:17:31.439Z,7.40
2018-08-28T16:19:59.834Z,7.23
2018-08-28T16:22:36.481Z,7.40
2018-08-28T16:25:05.266Z,7.07
2018-08-28T16:27:33.702Z,7.83
2018-08-28T16:30:02.135Z,7.17
2018-08-28T16:32:30.711Z,7.77
2018-08-28T16:34:59.151Z,7.50
2018-08-28T16:37:27.734Z,7.40
2018-08-28T16:39:56.172Z,7.43
2018-08-28T16:42:24.695Z,7.27
2018-08-28T16:44:53.135Z,7.70
2018-08-28T16:47:21.687Z,7.63
2018-08-28T16:49:50.123Z,7.63
2018-08-28T16:52:19.551Z,7.80
2018-08-28T16:54:49.014Z,7.50
2018-08-28T16:57:17.927Z,7.00
2018-08-28T16:59:46.801Z,7.60
2018-08-28T17:02:15.339Z,7.10
2018-08-28T17:04:43.761Z,6.87
2018-08-28T17:07:12.382Z,6.87
2018-08-28T17:09:40.927Z,7.20
2018-08-28T17:12:09.483Z,7.00
2018-08-28T17:14:38.165Z,6.90
2018-08-28T17:17:08.578Z,6.63
2018-08-28T17:19:37.001Z,7.13
2018-08-28T17:22:06.242Z,6.93
2018-08-28T17:24:34.713Z,6.70
2018-08-28T17:27:03.388Z,6.23
2018-08-28T17:29:31.815Z,6.97
2018-08-28T17:32:00.302Z,7.40
2018-08-28T17:34:28.797Z,7.10
2018-08-28T17:36:57.388Z,6.80
2018-08-28T17:39:25.923Z,6.63
2018-08-28T17:41:54.497Z,6.63
2018-08-28T17:44:23.091Z,6.73
2018-08-28T17:46:51.680Z,6.57
2018-08-28T17:49:20.168Z,6.30
2018-08-28T17:51:49.696Z,6.37
2018-08-28T17:54:18.706Z,6.37
2018-08-28T17:56:47.578Z,6.27
2018-08-28T17:59:16.238Z,6.30
2018-08-28T18:01:45.791Z,6.27
2018-08-28T18:04:14.263Z,6.60
2018-08-28T18:06:42.693Z,6.30
2018-08-28T18:09:11.217Z,6.13
2018-08-28T18:11:39.739Z,6.40
2018-08-28T18:14:08.203Z,6.20
2018-08-28T18:16:36.679Z,6.03
2018-08-28T18:19:05.632Z,6.00
2018-08-28T18:21:34.170Z,6.07
2018-08-28T18:24:02.628Z,5.87
2018-08-28T18:26:31.085Z,6.10
2018-08-28T18:28:59.632Z,6.50
2018-08-28T18:31:28.325Z,6.60
2018-08-28T18:33:56.814Z,6.30
2018-08-28T18:36:25.399Z,6.57
2018-08-28T18:38:53.811Z,6.20
2018-08-28T18:41:22.447Z,6.67
2018-08-28T18:43:51.024Z,6.53
2018-08-28T18:46:20.560Z,6.13
2018-08-28T18:48:50.167Z,6.37
2018-08-28T18:51:19.134Z,6.47
2018-08-28T18:53:47.617Z,6.13
2018-08-28T18:56:16.220Z,6.27
2018-08-28T18:58:44.651Z,6.50
2018-08-28T19:01:13.159Z,6.70
2018-08-28T19:03:41.636Z,5.90
2018-08-28T19:06:10.179Z,6.03
2018-08-28T19:08:38.631Z,6.30
2018-08-28T19:11:07.415Z,6.30
2018-08-28T19:13:35.860Z,6.70
2018-08-28T19:16:04.397Z,6.40
2018-08-28T19:18:32.913Z,5.87
2018-08-28T19:21:01.526Z,6.40
2018-08-28T19:23:30.121Z,6.50
2018-08-28T19:25:58.538Z,6.60
2018-08-28T19:28:27.209Z,6.43
2018-08-28T19:30:55.902Z,6.03
2018-08-28T19:33:24.416Z,5.97
2018-08-28T19:35:53.237Z,6.10
2018-08-28T19:38:21.711Z,6.93
2018-08-28T19:40:50.214Z,6.60
2018-08-28T19:43:18.677Z,6.43
2018-08-28T19:45:47.816Z,6.50
2018-08-28T19:48:16.287Z,6.60
2018-08-28T19:50:44.753Z,6.67
2018-08-28T19:53:13.250Z,6.60
2018-08-28T19:55:41.832Z,6.53
2018-08-28T19:58:10.274Z,7.13
2018-08-28T20:00:38.674Z,6.33
2018-08-28T20:03:07.201Z,6.20
2018-08-28T20:05:35.685Z,7.00
2018-08-28T20:08:04.651Z,6.40
2018-08-28T20:10:33.172Z,6.07
2018-08-28T20:13:01.675Z,5.73
2018-08-28T20:15:30.164Z,6.13
2018-08-28T20:17:58.559Z,5.93
2018-08-28T20:20:27.187Z,6.50
2018-08-28T20:22:55.624Z,6.03
2018-08-28T20:32:22.450Z,6.77
2018-08-28T20:34:50.928Z,6.60
2018-08-28T20:37:20.567Z,6.53
2018-08-28T20:39:49.899Z,6.80
2018-08-28T20:42:19.231Z,5.97
2018-08-28T20:44:48.440Z,6.40
2018-08-28T20:47:17.460Z,6.50
2018-08-28T20:49:45.853Z,6.23
2018-08-28T20:52:14.348Z,6.40
2018-08-28T20:54:42.882Z,6.93
2018-08-28T20:57:11.481Z,6.47
2018-08-28T20:59:39.973Z,6.30
2018-08-28T21:02:09.194Z,6.50
2018-08-28T21:04:37.635Z,6.27
2018-08-28T21:07:07.083Z,6.87
2018-08-28T21:09:35.506Z,6.30
2018-08-28T21:12:04.018Z,6.37
2018-08-28T21:14:32.488Z,6.73
2018-08-28T21:17:01.033Z,6.70
2018-08-28T21:19:29.484Z,6.80
2018-08-28T21:21:58.099Z,7.10
2018-08-28T21:24:26.580Z,6.90
2018-08-28T21:26:55.166Z,6.40
2018-08-28T21:29:23.828Z,6.27
2018-08-28T21:31:52.461Z,6.27
2018-08-28T21:34:21.027Z,6.67
2018-08-28T21:36:49.802Z,6.53
2018-08-28T21:39:18.967Z,6.20
2018-08-28T21:41:49.229Z,7.20
2018-08-28T21:44:17.761Z,7.27
2018-08-28T21:46:46.240Z,6.80
2018-08-28T21:49:15.090Z,7.00
2018-08-28T21:51:43.667Z,6.87
2018-08-28T21:54:12.133Z,6.93
2018-08-28T21:56:40.553Z,7.23
2018-08-28T21:59:08.995Z,6.67
2018-08-28T22:01:37.592Z,7.10
2018-08-28T22:04:06.119Z,7.03
2018-08-28T22:06:39.898Z,6.30
2018-08-28T22:09:08.560Z,6.83
2018-08-28T22:11:37.110Z,6.23
2018-08-28T22:14:05.983Z,6.60
2018-08-28T22:16:34.439Z,6.63
2018-08-28T22:19:02.965Z,7.00
2018-08-28T22:21:31.824Z,6.27
2018-08-28T22:24:00.214Z,6.23
2018-08-28T22:26:28.715Z,6.87
2018-08-28T22:28:57.154Z,6.33
2018-08-28T22:31:25.635Z,6.60
2018-08-28T22:33:54.089Z,6.57
2018-08-28T22:36:22.672Z,6.60
2018-08-28T22:38:51.071Z,6.57
2018-08-28T22:41:19.824Z,6.30
2018-08-28T22:43:49.267Z,6.43
2018-08-28T22:46:18.311Z,6.53
2018-08-28T22:48:46.914Z,7.00
2018-08-28T22:51:15.402Z,6.27
2018-08-28T22:53:43.855Z,6.20
2018-08-28T22:56:12.478Z,6.07
2018-08-28T22:58:40.974Z,6.33
2018-08-28T23:01:09.488Z,6.00
2018-08-28T23:03:37.900Z,6.17
2018-08-28T23:06:06.719Z,5.70
2018-08-28T23:08:35.214Z,6.17
2018-08-28T23:11:03.721Z,6.63
2018-08-28T23:13:32.231Z,5.70
2018-08-28T23:16:00.704Z,5.67
2018-08-28T23:18:29.151Z,6.10
2018-08-28T23:20:57.694Z,6.00
2018-08-28T23:23:26.079Z,5.93
2018-08-28T23:25:54.554Z,5.60
2018-08-28T23:28:23.051Z,5.53
2018-08-28T23:30:51.533Z,6.37
2018-08-28T23:33:20.026Z,6.20
2018-08-28T23:35:49.209Z,6.33
2018-08-28T23:38:17.855Z,6.03
2018-08-28T23:40:46.354Z,5.70
2018-08-28T23:43:15.170Z,5.63
2018-08-28T23:45:43.820Z,5.93
2018-08-28T23:48:12.333Z,6.03
2018-08-28T23:50:40.922Z,6.40
2018-08-28T23:53:09.330Z,5.83
2018-08-28T23:55:37.906Z,5.20
2018-08-28T23:58:37.556Z,6.03
